createdAt,value
2022-10-06T00:00:56.464Z,47.51
2022-10-06T00:03:24.832Z,47.46
2022-10-06T00:05:53.042Z,47.52
2022-10-06T00:08:21.302Z,47.45
2022-10-06T00:10:50.837Z,47.51
2022-10-06T00:13:19.080Z,47.44
2022-10-06T00:15:47.484Z,47.37
2022-10-06T00:18:15.797Z,47.42
2022-10-06T00:20:44.098Z,47.49
2022-10-06T00:23:13.060Z,47.31
2022-10-06T00:25:41.268Z,47.30
2022-10-06T00:28:11.318Z,47.55
2022-10-06T00:30:40.560Z,47.73
2022-10-06T00:33:08.959Z,47.62
2022-10-06T00:35:37.173Z,47.53
2022-10-06T00:38:05.880Z,47.54
2022-10-06T00:40:34.602Z,47.50
2022-10-06T00:43:04.701Z,47.69
2022-10-06T00:45:39.209Z,47.85
2022-10-06T00:48:14.159Z,47.75
2022-10-06T00:50:42.733Z,47.55
2022-10-06T00:53:13.513Z,47.41
2022-10-06T00:55:41.973Z,48.00
2022-10-06T00:58:11.396Z,47.81
2022-10-06T01:00:44.393Z,48.02
2022-10-06T01:03:17.939Z,48.21
2022-10-06T01:05:50.864Z,47.95
2022-10-06T01:08:19.839Z,48.14
2022-10-06T01:10:48.067Z,47.97
2022-10-06T01:13:17.661Z,48.21
2022-10-06T01:15:53.755Z,47.99
2022-10-06T01:18:27.388Z,48.27
2022-10-06T01:21:08.382Z,48.18
2022-10-06T01:23:38.170Z,48.01
2022-10-06T01:26:09.878Z,48.23
2022-10-06T01:28:38.796Z,48.12
2022-10-06T01:31:09.116Z,48.10
2022-10-06T01:33:37.498Z,48.30
2022-10-06T01:36:06.000Z,48.26
2022-10-06T01:38:34.327Z,48.35
2022-10-06T01:41:06.771Z,48.25
2022-10-06T01:43:36.497Z,48.34
2022-10-06T01:46:06.839Z,48.48
2022-10-06T01:48:36.811Z,48.35
2022-10-06T01:51:05.495Z,48.38
2022-10-06T01:53:33.900Z,48.49
2022-10-06T01:56:02.201Z,48.28
2022-10-06T01:58:33.414Z,48.17
2022-10-06T02:01:07.271Z,48.32
2022-10-06T02:03:37.600Z,48.38
2022-10-06T02:06:06.559Z,48.18
2022-10-06T02:08:36.554Z,48.46
2022-10-06T02:11:09.247Z,48.35
2022-10-06T02:13:43.524Z,48.49
2022-10-06T02:16:14.166Z,48.23
2022-10-06T02:18:44.134Z,47.35
2022-10-06T02:21:16.694Z,47.37
2022-10-06T02:23:45.374Z,47.89
2022-10-06T02:26:14.430Z,47.43
2022-10-06T02:28:44.965Z,47.35
2022-10-06T02:31:15.832Z,47.00
2022-10-06T02:33:45.455Z,47.08
2022-10-06T02:36:15.767Z,47.17
2022-10-06T02:38:45.653Z,47.12
2022-10-06T02:41:13.951Z,46.78
2022-10-06T02:43:43.730Z,46.98
2022-10-06T02:46:13.460Z,46.80
2022-10-06T02:48:47.683Z,46.79
2022-10-06T02:51:18.365Z,46.70
2022-10-06T02:53:48.817Z,46.86
2022-10-06T02:56:20.586Z,46.65
2022-10-06T02:58:51.462Z,46.75
2022-10-06T03:01:40.593Z,46.83
2022-10-06T03:04:13.674Z,46.42
2022-10-06T03:06:43.675Z,46.66
2022-10-06T03:09:20.773Z,46.52
2022-10-06T03:11:49.576Z,46.61
2022-10-06T03:14:39.475Z,46.36
2022-10-06T03:17:10.030Z,46.51
2022-10-06T03:19:45.625Z,46.78
2022-10-06T03:22:14.191Z,46.61
2022-10-06T03:24:51.591Z,46.82
2022-10-06T03:27:20.069Z,46.75
2022-10-06T03:29:51.790Z,46.82
2022-10-06T03:32:24.203Z,44.12
2022-10-06T03:34:54.400Z,43.49
2022-10-06T03:37:22.970Z,43.85
2022-10-06T03:39:52.109Z,43.79
2022-10-06T03:42:20.893Z,43.71
2022-10-06T03:44:50.908Z,43.42
2022-10-06T03:47:19.322Z,43.72
2022-10-06T03:49:48.345Z,43.88
2022-10-06T03:52:22.340Z,43.71
2022-10-06T03:54:54.123Z,43.43
2022-10-06T03:57:23.087Z,43.77
2022-10-06T03:59:53.431Z,44.30
2022-10-06T04:02:21.752Z,43.78
2022-10-06T04:04:49.996Z,43.55
2022-10-06T04:07:19.095Z,43.99
2022-10-06T04:09:47.807Z,44.40
2022-10-06T04:12:17.687Z,44.34
2022-10-06T04:14:46.006Z,44.67
2022-10-06T04:17:16.630Z,44.77
2022-10-06T04:19:45.136Z,44.94
2022-10-06T04:22:14.713Z,44.97
2022-10-06T04:24:43.703Z,45.01
2022-10-06T04:27:30.092Z,45.01
2022-10-06T04:30:18.763Z,45.26
2022-10-06T04:32:48.935Z,45.63
2022-10-06T04:35:17.860Z,46.01
2022-10-06T04:37:46.701Z,46.18
2022-10-06T04:40:15.373Z,46.48
2022-10-06T04:42:43.635Z,46.67
2022-10-06T04:45:15.806Z,46.84
2022-10-06T04:47:44.863Z,46.79
2022-10-06T04:50:14.988Z,47.07
2022-10-06T04:53:03.324Z,47.31
2022-10-06T04:55:31.786Z,46.89
2022-10-06T04:58:00.553Z,46.67
2022-10-06T05:00:28.986Z,46.77
2022-10-06T05:02:58.839Z,46.86
2022-10-06T05:05:28.804Z,47.05
2022-10-06T05:07:57.956Z,47.14
2022-10-06T05:10:28.651Z,47.18
2022-10-06T05:12:57.894Z,47.49
2022-10-06T05:15:29.294Z,47.42
2022-10-06T05:17:57.566Z,47.52
2022-10-06T05:20:25.917Z,47.42
2022-10-06T05:22:56.084Z,47.30
2022-10-06T05:25:25.040Z,47.20
2022-10-06T05:27:53.247Z,47.18
2022-10-06T05:30:21.828Z,47.01
2022-10-06T05:32:50.663Z,47.34
2022-10-06T05:35:19.956Z,47.29
2022-10-06T05:37:48.199Z,47.14
2022-10-06T05:40:18.541Z,47.14
2022-10-06T05:42:46.753Z,47.24
2022-10-06T05:45:15.222Z,47.36
2022-10-06T05:47:43.585Z,47.38
2022-10-06T05:50:11.853Z,47.37
2022-10-06T05:52:40.553Z,47.67
2022-10-06T05:55:10.410Z,47.67
2022-10-06T05:57:40.306Z,47.53
2022-10-06T06:00:09.859Z,47.43
2022-10-06T06:02:41.510Z,47.60
2022-10-06T06:05:12.095Z,47.28
2022-10-06T06:07:41.240Z,47.65
2022-10-06T06:10:10.626Z,47.40
2022-10-06T06:12:40.482Z,47.33
2022-10-06T06:15:33.629Z,47.36
2022-10-06T06:18:06.234Z,47.56
2022-10-06T06:20:34.831Z,47.49
2022-10-06T06:23:03.237Z,47.46
2022-10-06T06:25:32.213Z,47.68
2022-10-06T06:28:01.939Z,47.27
2022-10-06T06:30:30.946Z,47.35
2022-10-06T06:33:00.476Z,47.52
2022-10-06T06:35:29.688Z,47.87
2022-10-06T06:37:59.535Z,47.67
2022-10-06T06:40:29.016Z,47.55
2022-10-06T06:42:57.642Z,47.67
2022-10-06T06:45:41.625Z,47.67
2022-10-06T06:48:20.586Z,47.69
2022-10-06T06:50:58.560Z,47.54
2022-10-06T06:53:28.555Z,47.53
2022-10-06T06:55:59.338Z,47.84
2022-10-06T06:58:28.466Z,47.74
2022-10-06T07:01:06.267Z,47.79
2022-10-06T07:03:56.161Z,47.87
2022-10-06T07:06:28.186Z,47.81
2022-10-06T07:08:58.541Z,47.72
2022-10-06T07:11:29.071Z,47.91
2022-10-06T07:14:01.355Z,47.84
2022-10-06T07:16:49.615Z,47.99
2022-10-06T07:19:37.122Z,47.85
2022-10-06T07:22:32.666Z,48.08
2022-10-06T07:25:11.643Z,48.09
2022-10-06T07:27:51.218Z,48.31
2022-10-06T07:30:41.181Z,48.20
2022-10-06T07:33:16.320Z,48.24
2022-10-06T07:37:49.199Z,48.29
2022-10-06T07:40:18.814Z,48.25
2022-10-06T07:42:52.171Z,48.26
2022-10-06T07:45:42.535Z,48.19
2022-10-06T07:48:33.549Z,48.12
2022-10-06T07:51:07.421Z,48.13
2022-10-06T07:53:40.155Z,48.41
2022-10-06T07:56:27.089Z,48.37
2022-10-06T07:58:58.885Z,48.09
2022-10-06T08:01:30.045Z,48.10
2022-10-06T08:03:58.723Z,48.19
2022-10-06T08:06:27.324Z,48.43
2022-10-06T08:08:56.995Z,48.59
2022-10-06T08:11:25.467Z,48.36
2022-10-06T08:13:53.912Z,48.44
2022-10-06T08:16:26.603Z,48.23
2022-10-06T08:18:56.107Z,48.05
2022-10-06T08:21:25.482Z,47.96
2022-10-06T08:23:57.840Z,48.06
2022-10-06T08:26:28.326Z,48.16
2022-10-06T08:29:03.347Z,48.25
2022-10-06T08:31:33.508Z,48.21
2022-10-06T08:34:02.189Z,48.03
2022-10-06T08:36:32.405Z,48.42
2022-10-06T08:39:02.589Z,48.24
2022-10-06T08:41:40.233Z,48.09
2022-10-06T08:44:21.591Z,48.34
2022-10-06T08:46:57.020Z,48.31
2022-10-06T08:49:28.221Z,48.14
2022-10-06T08:52:03.889Z,48.19
2022-10-06T08:54:40.254Z,47.89
2022-10-06T08:57:17.530Z,48.10
2022-10-06T08:59:48.048Z,48.08
2022-10-06T09:02:30.239Z,47.88
2022-10-06T09:05:02.759Z,48.07
2022-10-06T09:07:40.674Z,47.83
2022-10-06T09:10:32.093Z,48.17
2022-10-06T09:13:07.009Z,48.39
2022-10-06T09:15:40.484Z,50.64
2022-10-06T09:18:16.157Z,50.24
2022-10-06T09:20:51.231Z,50.14
2022-10-06T09:23:41.146Z,50.21
2022-10-06T09:26:13.801Z,49.79
2022-10-06T09:28:46.849Z,49.35
2022-10-06T09:31:23.262Z,49.22
2022-10-06T09:33:55.249Z,49.40
2022-10-06T09:36:24.301Z,49.13
2022-10-06T09:38:55.611Z,48.94
2022-10-06T09:41:28.213Z,49.12
2022-10-06T09:43:59.984Z,49.14
2022-10-06T09:46:32.306Z,49.00
2022-10-06T09:49:18.727Z,49.17
2022-10-06T09:52:05.098Z,49.24
2022-10-06T09:54:35.043Z,48.91
2022-10-06T09:57:15.528Z,48.75
2022-10-06T09:59:46.371Z,48.83
2022-10-06T10:02:36.928Z,49.16
2022-10-06T10:05:08.398Z,49.21
2022-10-06T10:07:37.605Z,49.19
2022-10-06T10:10:20.868Z,49.29
2022-10-06T10:12:54.941Z,49.30
2022-10-06T10:15:31.499Z,49.24
2022-10-06T10:18:03.259Z,49.08
2022-10-06T10:20:38.119Z,48.88
2022-10-06T10:23:20.688Z,49.06
2022-10-06T10:26:03.159Z,49.01
2022-10-06T10:28:51.785Z,49.09
2022-10-06T10:31:31.586Z,48.82
2022-10-06T10:34:24.863Z,49.31
2022-10-06T10:36:57.677Z,48.86
2022-10-06T10:39:34.971Z,49.84
2022-10-06T10:42:07.652Z,50.15
2022-10-06T10:44:44.629Z,49.68
2022-10-06T10:47:20.643Z,49.99
2022-10-06T10:49:54.989Z,49.90
2022-10-06T10:52:28.133Z,49.88
2022-10-06T10:55:05.230Z,49.84
2022-10-06T10:57:38.948Z,50.03
2022-10-06T11:00:17.118Z,49.82
2022-10-06T11:02:45.854Z,49.80
2022-10-06T11:05:18.247Z,49.71
2022-10-06T11:07:54.939Z,49.72
2022-10-06T11:10:27.222Z,49.96
2022-10-06T11:13:11.629Z,49.61
2022-10-06T11:16:08.129Z,49.70
2022-10-06T11:18:48.852Z,49.76
2022-10-06T11:21:21.855Z,49.76
2022-10-06T11:23:58.761Z,49.38
2022-10-06T11:26:41.148Z,49.64
2022-10-06T11:29:22.089Z,49.56
2022-10-06T11:32:00.930Z,49.50
2022-10-06T11:34:29.680Z,49.47
2022-10-06T11:37:06.415Z,49.44
2022-10-06T11:39:49.341Z,49.32
2022-10-06T11:42:23.564Z,49.13
2022-10-06T11:44:59.440Z,49.30
2022-10-06T11:47:35.458Z,49.29
2022-10-06T11:50:34.879Z,49.50
2022-10-06T11:53:03.583Z,49.36
2022-10-06T11:55:32.055Z,49.19
2022-10-06T11:58:37.878Z,49.34
2022-10-06T12:01:03.813Z,49.38
2022-10-06T12:04:13.340Z,49.46
2022-10-06T12:06:57.825Z,49.15
2022-10-06T12:09:52.007Z,48.97
2022-10-06T12:13:31.771Z,49.16
2022-10-06T12:17:09.326Z,49.01
2022-10-06T12:19:21.487Z,49.06
2022-10-06T12:22:00.788Z,49.08
2022-10-06T12:24:41.542Z,49.12
2022-10-06T12:27:48.745Z,49.10
2022-10-06T12:30:23.723Z,49.02
2022-10-06T12:32:54.565Z,49.15
2022-10-06T12:35:31.830Z,49.27
2022-10-06T12:38:04.943Z,49.01
2022-10-06T12:40:55.707Z,48.97
2022-10-06T12:43:32.522Z,48.93
2022-10-06T12:46:05.492Z,49.18
2022-10-06T12:48:42.849Z,48.94
2022-10-06T12:51:23.703Z,49.15
2022-10-06T12:54:00.596Z,49.23
2022-10-06T12:56:31.734Z,48.96
2022-10-06T12:59:00.151Z,48.87
2022-10-06T13:01:29.281Z,48.86
2022-10-06T13:03:57.677Z,49.05
2022-10-06T13:06:27.563Z,49.07
2022-10-06T13:09:15.090Z,49.19
2022-10-06T13:11:43.471Z,49.14
2022-10-06T13:14:15.170Z,49.25
2022-10-06T13:16:46.586Z,49.34
2022-10-06T13:19:18.706Z,49.30
2022-10-06T13:21:48.980Z,49.18
2022-10-06T13:24:27.876Z,49.00
2022-10-06T13:26:56.710Z,48.97
2022-10-06T13:29:26.520Z,49.41
2022-10-06T13:31:56.380Z,49.25
2022-10-06T13:34:30.321Z,48.91
2022-10-06T13:37:01.669Z,49.07
2022-10-06T13:39:32.102Z,49.29
2022-10-06T13:42:04.776Z,49.10
2022-10-06T13:44:38.055Z,49.28
2022-10-06T13:47:15.972Z,49.00
2022-10-06T13:49:49.149Z,49.05
2022-10-06T13:52:23.579Z,49.26
2022-10-06T13:54:53.824Z,49.05
2022-10-06T13:57:38.338Z,49.20
2022-10-06T14:00:16.515Z,49.37
2022-10-06T14:02:46.505Z,49.19
2022-10-06T14:05:32.852Z,49.27
2022-10-06T14:08:05.184Z,49.28
2022-10-06T14:10:46.098Z,49.36
2022-10-06T14:13:19.270Z,49.55
2022-10-06T14:15:49.616Z,49.08
2022-10-06T14:18:23.447Z,49.37
2022-10-06T14:20:53.439Z,49.45
2022-10-06T14:23:51.252Z,49.41
2022-10-06T14:26:21.163Z,49.36
2022-10-06T14:28:53.332Z,49.44
2022-10-06T14:31:22.163Z,49.61
2022-10-06T14:33:52.842Z,49.71
2022-10-06T14:36:23.900Z,49.47
2022-10-06T14:38:56.320Z,49.49
2022-10-06T14:41:27.886Z,49.62
2022-10-06T14:43:57.154Z,49.56
2022-10-06T14:46:26.529Z,49.47
2022-10-06T14:48:54.768Z,49.38
2022-10-06T14:51:24.750Z,49.45
2022-10-06T14:53:54.818Z,49.50
2022-10-06T14:56:24.501Z,49.25
2022-10-06T14:58:53.978Z,49.43
2022-10-06T15:01:24.671Z,49.49
2022-10-06T15:03:53.495Z,49.05
2022-10-06T15:06:39.619Z,49.75
2022-10-06T15:09:09.851Z,49.39
2022-10-06T15:11:38.955Z,49.31
2022-10-06T15:14:08.749Z,49.06
2022-10-06T15:16:42.432Z,49.19
2022-10-06T15:19:11.705Z,49.20
2022-10-06T15:21:40.982Z,49.01
2022-10-06T15:24:14.122Z,48.93
2022-10-06T15:27:00.448Z,49.08
2022-10-06T15:29:29.387Z,49.35
2022-10-06T15:31:58.894Z,49.11
2022-10-06T15:34:28.759Z,49.20
2022-10-06T15:36:58.117Z,48.32
2022-10-06T15:39:30.127Z,47.49
2022-10-06T15:41:58.642Z,47.49
2022-10-06T15:44:27.288Z,47.35
2022-10-06T15:46:56.970Z,47.26
2022-10-06T15:49:26.642Z,47.02
2022-10-06T15:51:57.127Z,46.63
2022-10-06T15:54:28.469Z,46.80
2022-10-06T15:56:58.394Z,46.40
2022-10-06T15:59:27.849Z,45.86
2022-10-06T16:01:57.872Z,45.76
2022-10-06T16:04:34.654Z,45.76
2022-10-06T16:07:03.733Z,46.03
2022-10-06T16:09:38.183Z,45.84
2022-10-06T16:12:12.152Z,45.96
2022-10-06T16:14:40.787Z,45.90
2022-10-06T16:17:09.708Z,45.89
2022-10-06T16:19:38.583Z,45.70
2022-10-06T16:22:08.475Z,46.18
2022-10-06T16:24:38.260Z,45.89
2022-10-06T16:27:06.906Z,45.87
2022-10-06T16:29:35.206Z,45.46
2022-10-06T16:32:03.868Z,45.32
2022-10-06T16:34:32.587Z,45.44
2022-10-06T16:37:00.810Z,45.29
2022-10-06T16:39:29.057Z,45.17
2022-10-06T16:41:58.649Z,45.14
2022-10-06T16:44:26.946Z,45.29
2022-10-06T16:46:55.244Z,44.81
2022-10-06T16:49:24.674Z,44.78
2022-10-06T16:51:52.666Z,45.15
2022-10-06T16:54:21.013Z,45.18
2022-10-06T16:56:52.218Z,45.18
2022-10-06T16:59:23.014Z,45.53
2022-10-06T17:01:52.022Z,45.71
2022-10-06T17:04:22.093Z,45.84
2022-10-06T17:06:51.971Z,46.01
2022-10-06T17:09:22.255Z,46.20
2022-10-06T17:11:51.913Z,46.20
2022-10-06T17:14:22.466Z,46.63
2022-10-06T17:16:52.758Z,46.32
2022-10-06T17:19:22.906Z,46.63
2022-10-06T17:21:57.450Z,46.67
2022-10-06T17:24:28.417Z,47.22
2022-10-06T17:26:59.213Z,47.21
2022-10-06T17:29:29.062Z,47.47
2022-10-06T17:32:00.613Z,47.34
2022-10-06T17:34:32.627Z,47.43
2022-10-06T17:37:02.961Z,47.44
2022-10-06T17:39:32.180Z,47.49
2022-10-06T17:42:00.658Z,47.81
2022-10-06T17:44:31.379Z,47.60
2022-10-06T17:47:01.529Z,47.57
2022-10-06T17:49:34.770Z,47.92
2022-10-06T17:52:04.053Z,47.27
2022-10-06T17:54:34.493Z,47.58
2022-10-06T17:57:02.977Z,47.48
2022-10-06T17:59:33.885Z,47.71
2022-10-06T18:02:04.448Z,47.77
2022-10-06T18:04:34.413Z,47.63
2022-10-06T18:07:04.100Z,47.83
2022-10-06T18:09:32.485Z,48.80
2022-10-06T18:12:01.387Z,48.44
2022-10-06T18:14:33.653Z,48.75
2022-10-06T18:17:04.195Z,48.18
2022-10-06T18:19:34.922Z,48.14
2022-10-06T18:22:07.064Z,48.07
2022-10-06T18:24:35.380Z,48.23
2022-10-06T18:27:05.935Z,48.37
2022-10-06T18:29:37.064Z,48.00
2022-10-06T18:37:43.695Z,48.00
2022-10-06T18:40:14.920Z,48.30
2022-10-06T18:42:43.544Z,47.95
2022-10-06T18:45:34.232Z,48.07
2022-10-06T18:48:23.285Z,47.93
2022-10-06T18:51:00.641Z,48.11
2022-10-06T18:53:31.303Z,48.18
2022-10-06T18:55:59.602Z,48.15
2022-10-06T18:58:28.358Z,48.01
2022-10-06T19:00:58.729Z,48.22
2022-10-06T19:03:28.546Z,48.29
2022-10-06T19:05:58.945Z,48.34
2022-10-06T19:08:27.538Z,48.00
2022-10-06T19:11:13.015Z,48.54
2022-10-06T19:13:47.111Z,48.25
2022-10-06T19:16:17.641Z,48.13
2022-10-06T19:18:46.215Z,48.16
2022-10-06T19:21:14.752Z,48.28
2022-10-06T19:23:43.257Z,48.30
2022-10-06T19:26:12.719Z,48.38
2022-10-06T19:28:41.661Z,48.34
2022-10-06T19:31:12.522Z,48.25
2022-10-06T19:33:43.519Z,48.13
2022-10-06T19:36:11.808Z,48.59
2022-10-06T19:38:40.533Z,48.27
2022-10-06T19:41:26.673Z,48.14
2022-10-06T19:43:55.123Z,48.50
2022-10-06T19:46:23.561Z,48.30
2022-10-06T19:48:55.701Z,48.34
2022-10-06T19:51:25.227Z,48.48
2022-10-06T19:53:53.630Z,48.54
2022-10-06T19:56:25.756Z,48.58
2022-10-06T19:58:54.032Z,48.59
2022-10-06T20:01:22.941Z,48.32
2022-10-06T20:03:51.394Z,48.41
2022-10-06T20:06:23.306Z,48.41
2022-10-06T20:08:52.800Z,48.40
2022-10-06T20:11:22.533Z,48.27
2022-10-06T20:13:51.511Z,48.48
2022-10-06T20:16:22.001Z,48.56
2022-10-06T20:18:50.829Z,48.61
2022-10-06T20:21:22.422Z,48.70
2022-10-06T20:23:53.295Z,48.40
2022-10-06T20:26:24.110Z,48.66
2022-10-06T20:28:52.512Z,48.42
2022-10-06T20:31:23.127Z,48.40
2022-10-06T20:33:51.587Z,48.43
2022-10-06T20:36:21.793Z,48.47
2022-10-06T20:39:07.135Z,48.54
2022-10-06T20:41:35.841Z,48.64
2022-10-06T20:44:04.778Z,48.38
2022-10-06T20:46:35.849Z,48.33
2022-10-06T20:49:06.214Z,48.46
2022-10-06T20:51:38.202Z,48.40
2022-10-06T20:54:07.701Z,48.18
2022-10-06T20:56:36.891Z,48.47
2022-10-06T20:59:07.707Z,48.16
2022-10-06T21:01:38.682Z,48.40
2022-10-06T21:04:09.359Z,48.53
2022-10-06T21:06:39.990Z,48.42
2022-10-06T21:09:10.253Z,48.31
2022-10-06T21:11:39.130Z,48.40
2022-10-06T21:14:10.867Z,48.36
2022-10-06T21:16:42.269Z,48.21
2022-10-06T21:19:13.729Z,48.31
2022-10-06T21:21:46.242Z,48.32
2022-10-06T21:24:14.686Z,48.42
2022-10-06T21:26:43.514Z,48.13
2022-10-06T21:29:13.028Z,48.38
2022-10-06T21:31:41.890Z,48.13
2022-10-06T21:34:10.664Z,48.14
2022-10-06T21:36:39.940Z,48.20
2022-10-06T21:39:14.591Z,47.99
2022-10-06T21:41:43.727Z,48.25
2022-10-06T21:44:13.822Z,48.28
2022-10-06T21:46:46.670Z,48.07
2022-10-06T21:49:16.581Z,48.32
2022-10-06T21:51:47.182Z,48.27
2022-10-06T21:54:17.714Z,48.12
2022-10-06T21:56:47.561Z,48.02
2022-10-06T21:59:15.658Z,48.08
2022-10-06T22:01:46.570Z,48.23
2022-10-06T22:04:16.101Z,47.98
2022-10-06T22:06:44.844Z,48.37
2022-10-06T22:09:17.100Z,48.04
2022-10-06T22:11:46.568Z,48.24
2022-10-06T22:14:16.704Z,48.15
2022-10-06T22:16:45.823Z,48.15
2022-10-06T22:19:16.482Z,47.92
2022-10-06T22:21:46.786Z,47.89
2022-10-06T22:24:17.866Z,48.03
2022-10-06T22:26:47.455Z,48.33
2022-10-06T22:29:18.482Z,47.93
2022-10-06T22:31:48.749Z,47.99
2022-10-06T22:34:18.826Z,48.13
2022-10-06T22:36:47.607Z,48.08
2022-10-06T22:39:18.023Z,47.95
2022-10-06T22:41:46.592Z,48.18
2022-10-06T22:44:15.177Z,48.08
2022-10-06T22:46:43.575Z,48.04
2022-10-06T22:49:12.352Z,47.94
2022-10-06T22:51:40.751Z,48.09
2022-10-06T22:54:09.812Z,48.03
2022-10-06T22:56:39.635Z,47.92
2022-10-06T22:59:08.249Z,47.86
2022-10-06T23:01:36.685Z,48.06
2022-10-06T23:04:05.370Z,47.96
2022-10-06T23:06:33.844Z,47.92
2022-10-06T23:09:04.961Z,47.94
2022-10-06T23:11:33.459Z,47.78
2022-10-06T23:14:03.658Z,47.99
2022-10-06T23:16:32.167Z,47.98
2022-10-06T23:19:01.085Z,47.77
2022-10-06T23:21:29.514Z,47.80
2022-10-06T23:24:01.298Z,47.83
2022-10-06T23:26:29.910Z,47.95
2022-10-06T23:29:01.169Z,47.89
2022-10-06T23:31:30.974Z,47.85
2022-10-06T23:34:00.181Z,47.71
2022-10-06T23:36:28.528Z,47.99
2022-10-06T23:38:57.121Z,47.91
2022-10-06T23:41:25.830Z,47.92
2022-10-06T23:43:54.099Z,47.75
2022-10-06T23:46:22.638Z,48.01
2022-10-06T23:48:52.427Z,47.77
2022-10-06T23:51:21.138Z,47.84
2022-10-06T23:53:49.628Z,47.83
2022-10-06T23:56:19.515Z,47.85
2022-10-06T23:58:47.915Z,47.83
